createdAt,value
2018-12-05T00:00:15.349Z,88.19
2018-12-05T00:01:15.427Z,88.29
2018-12-05T00:02:15.587Z,88.22
2018-12-05T00:03:15.474Z,88.12
2018-12-05T00:04:15.243Z,88.27
2018-12-05T00:05:15.338Z,88.33
2018-12-05T00:06:16.008Z,88.12
2018-12-05T00:07:15.506Z,88
2018-12-05T00:08:15.419Z,88.08
2018-12-05T00:09:15.511Z,88.11
2018-12-05T00:10:15.256Z,88.41
2018-12-05T00:11:15.677Z,88.3
2018-12-05T00:12:15.174Z,88.12
2018-12-05T00:13:15.197Z,88.39
2018-12-05T00:14:15.334Z,88.2
2018-12-05T00:15:15.356Z,88.06
2018-12-05T00:16:15.220Z,88.14
2018-12-05T00:17:15.264Z,88.22
2018-12-05T00:18:15.218Z,88.1
2018-12-05T00:19:15.323Z,88.08
2018-12-05T00:20:15.206Z,88.09
2018-12-05T00:21:15.323Z,88.06
2018-12-05T00:22:15.338Z,88.24
2018-12-05T00:23:15.509Z,88.54
2018-12-05T00:24:15.189Z,88.52
2018-12-05T00:25:15.501Z,88.22
2018-12-05T00:26:15.529Z,88.05
2018-12-05T00:27:15.243Z,88.02
2018-12-05T00:28:15.270Z,88.13
2018-12-05T00:29:15.174Z,88.48
2018-12-05T00:30:15.246Z,88.37
2018-12-05T00:31:15.227Z,88.33
2018-12-05T00:32:15.277Z,88.48
2018-12-05T00:33:15.222Z,88.24
2018-12-05T00:34:15.181Z,88.46
2018-12-05T00:35:15.167Z,88.39
2018-12-05T00:36:15.147Z,88.22
2018-12-05T00:37:15.317Z,88.14
2018-12-05T00:38:15.200Z,88.17
2018-12-05T00:39:15.148Z,88.35
2018-12-05T00:40:15.432Z,88.22
2018-12-05T00:41:15.193Z,88.34
2018-12-05T00:42:15.372Z,88.55
2018-12-05T00:43:15.244Z,88.62
2018-12-05T00:44:15.252Z,88.65
2018-12-05T00:45:15.159Z,88.89
2018-12-05T00:46:15.154Z,88.77
2018-12-05T00:47:15.134Z,88.78
2018-12-05T00:48:15.166Z,88.67
2018-12-05T00:49:15.303Z,88.6
2018-12-05T00:50:15.245Z,88.74
2018-12-05T00:51:15.264Z,88.86
2018-12-05T00:52:15.196Z,88.62
2018-12-05T00:53:15.202Z,88.73
2018-12-05T00:54:15.284Z,88.92
2018-12-05T00:55:15.218Z,88.82
2018-12-05T00:56:15.344Z,89.09
2018-12-05T00:57:15.538Z,89.09
2018-12-05T00:58:15.202Z,88.95
2018-12-05T00:59:15.530Z,89.36
2018-12-05T01:00:15.149Z,89.08
2018-12-05T01:01:15.224Z,88.99
2018-12-05T01:02:15.096Z,88.98
2018-12-05T01:03:15.135Z,88.82
2018-12-05T01:04:15.201Z,88.8
2018-12-05T01:05:15.434Z,88.99
2018-12-05T01:06:15.293Z,88.67
2018-12-05T01:07:15.306Z,88.78
2018-12-05T01:08:15.246Z,88.86
2018-12-05T01:09:15.149Z,88.84
2018-12-05T01:10:15.175Z,88.98
2018-12-05T01:11:15.131Z,88.95
2018-12-05T01:12:15.189Z,88.8
2018-12-05T01:13:15.361Z,88.87
2018-12-05T01:14:15.264Z,88.71
2018-12-05T01:15:15.109Z,88.91
2018-12-05T01:16:15.204Z,88.67
2018-12-05T01:17:15.151Z,88.76
2018-12-05T01:18:15.156Z,88.64
2018-12-05T01:19:15.110Z,88.6
2018-12-05T01:20:15.291Z,88.57
2018-12-05T01:21:15.183Z,88.55
2018-12-05T01:22:15.252Z,88.54
2018-12-05T01:23:15.448Z,88.41
2018-12-05T01:24:15.143Z,88.38
2018-12-05T01:25:15.173Z,88.42
2018-12-05T01:26:15.656Z,88.46
2018-12-05T01:27:15.156Z,88.32
2018-12-05T01:28:15.145Z,88.31
2018-12-05T01:29:15.095Z,88.41
2018-12-05T01:30:15.407Z,88.14
2018-12-05T01:31:15.145Z,88.32
2018-12-05T01:32:15.133Z,88.34
2018-12-05T01:33:16.594Z,88.42
2018-12-05T01:34:15.152Z,88.42
2018-12-05T01:35:15.289Z,88.51
2018-12-05T01:36:15.113Z,88.38
2018-12-05T01:37:15.252Z,88.01
2018-12-05T01:38:15.691Z,87.94
2018-12-05T01:39:15.127Z,88.07
2018-12-05T01:40:15.348Z,88.21
2018-12-05T01:41:15.338Z,88.08
2018-12-05T01:42:15.328Z,88.12
2018-12-05T01:43:15.095Z,88.14
2018-12-05T01:44:15.095Z,88.27
2018-12-05T01:45:15.222Z,88.26
2018-12-05T01:46:15.104Z,88.57
2018-12-05T01:47:15.084Z,88.25
2018-12-05T01:48:15.140Z,88.55
2018-12-05T01:49:15.086Z,88.63
2018-12-05T01:50:15.356Z,88.58
2018-12-05T01:51:15.101Z,88.81
2018-12-05T01:52:15.327Z,88.7
2018-12-05T01:53:15.207Z,88.81
2018-12-05T01:54:15.085Z,88.67
2018-12-05T01:55:15.171Z,88.59
2018-12-05T01:56:15.098Z,88.62
2018-12-05T01:57:15.106Z,88.62
2018-12-05T01:58:15.081Z,88.57
2018-12-05T01:59:15.086Z,88.49
2018-12-05T02:00:15.179Z,88.61
2018-12-05T02:01:15.103Z,88.74
2018-12-05T02:02:15.099Z,88.94
2018-12-05T02:03:15.345Z,88.87
2018-12-05T02:04:15.068Z,88.85
2018-12-05T02:05:15.122Z,88.5
2018-12-05T02:06:15.424Z,88.6
2018-12-05T02:07:15.648Z,88.62
2018-12-05T02:08:15.065Z,88.45
2018-12-05T02:09:15.107Z,88.24
2018-12-05T02:10:15.066Z,88.56
2018-12-05T02:11:15.130Z,88.43
2018-12-05T02:12:15.527Z,88.27
2018-12-05T02:13:15.174Z,88.23
2018-12-05T02:14:15.152Z,88.48
2018-12-05T02:15:15.111Z,88.62
2018-12-05T02:16:15.304Z,88.37
2018-12-05T02:17:15.028Z,88.42
2018-12-05T02:18:15.064Z,88.35
2018-12-05T02:19:15.085Z,88.75
2018-12-05T02:20:15.158Z,88.59
2018-12-05T02:21:15.110Z,88.51
2018-12-05T02:22:15.137Z,88.74
2018-12-05T02:23:15.274Z,88.55
2018-12-05T02:24:15.325Z,88.38
2018-12-05T02:25:15.059Z,88.33
2018-12-05T02:26:15.429Z,88.45
2018-12-05T02:27:15.196Z,88.69
2018-12-05T02:28:15.488Z,88.43
2018-12-05T02:29:15.578Z,88.53
2018-12-05T02:30:15.327Z,88.28
2018-12-05T02:31:15.139Z,88.53
2018-12-05T02:32:15.192Z,88.78
2018-12-05T02:33:15.484Z,88.36
2018-12-05T02:34:15.050Z,88.39
2018-12-05T02:35:15.365Z,88.38
2018-12-05T02:36:15.164Z,88.4
2018-12-05T02:37:15.087Z,88.04
2018-12-05T02:38:15.078Z,87.97
2018-12-05T02:39:15.158Z,88.03
2018-12-05T02:40:15.024Z,88.09
2018-12-05T02:41:15.150Z,88.17
2018-12-05T02:42:15.229Z,88.25
2018-12-05T02:43:15.203Z,87.99
2018-12-05T02:44:15.132Z,87.98
2018-12-05T02:45:15.141Z,88.02
2018-12-05T02:46:15.108Z,88.15
2018-12-05T02:47:15.126Z,88.62
2018-12-05T02:48:15.101Z,88.61
2018-12-05T02:49:15.108Z,88.24
2018-12-05T02:50:15.396Z,88.26
2018-12-05T02:51:15.032Z,88.11
2018-12-05T02:52:15.103Z,88.06
2018-12-05T02:53:15.171Z,88.07
2018-12-05T02:54:15.013Z,88.18
2018-12-05T02:55:15.135Z,88.16
2018-12-05T02:56:15.206Z,88.38
2018-12-05T02:57:15.119Z,88.24
2018-12-05T02:58:15.078Z,88.23
2018-12-05T02:59:15.226Z,88.48
2018-12-05T03:00:15.126Z,88.65
2018-12-05T03:01:15.005Z,88.55
2018-12-05T03:02:15.060Z,88.49
2018-12-05T03:03:15.115Z,88.36
2018-12-05T03:04:15.314Z,88.65
2018-12-05T03:05:15.204Z,88.49
2018-12-05T03:06:15.237Z,88.42
2018-12-05T03:07:15.115Z,88.14
2018-12-05T03:08:15.069Z,88.14
2018-12-05T03:09:15.155Z,88.18
2018-12-05T03:10:15.145Z,88.38
2018-12-05T03:11:15.216Z,88.53
2018-12-05T03:12:15.109Z,88.69
2018-12-05T03:13:15.128Z,88.57
2018-12-05T03:14:15.236Z,88.22
2018-12-05T03:15:15.124Z,88.11
2018-12-05T03:16:15.200Z,88.38
2018-12-05T03:17:14.960Z,88.14
2018-12-05T03:18:15.082Z,88.17
2018-12-05T03:19:15.180Z,88.46
2018-12-05T03:20:15.770Z,88.52
2018-12-05T03:21:15.088Z,88.42
2018-12-05T03:22:15.233Z,88.18
2018-12-05T03:23:15.154Z,87.9
2018-12-05T03:24:15.134Z,88.07
2018-12-05T03:25:15.098Z,87.89
2018-12-05T03:26:15.071Z,87.98
2018-12-05T03:27:15.077Z,87.99
2018-12-05T03:28:15.049Z,87.8
2018-12-05T03:29:15.117Z,87.85
2018-12-05T03:30:15.115Z,87.86
2018-12-05T03:31:15.034Z,87.7
2018-12-05T03:32:14.969Z,87.66
2018-12-05T03:33:15.172Z,87.64
2018-12-05T03:34:15.017Z,87.69
2018-12-05T03:35:14.927Z,87.64
2018-12-05T03:36:15.017Z,87.71
2018-12-05T03:37:15.050Z,87.83
2018-12-05T03:38:15.179Z,87.81
2018-12-05T03:39:15.062Z,87.75
2018-12-05T03:40:14.910Z,87.97
2018-12-05T03:41:15.073Z,88.09
2018-12-05T03:42:15.036Z,88.18
2018-12-05T03:43:14.916Z,88.61
2018-12-05T03:44:14.977Z,88.48
2018-12-05T03:45:14.971Z,88.72
2018-12-05T03:46:15.060Z,88.99
2018-12-05T03:47:15.075Z,88.7
2018-12-05T03:48:15.008Z,88.44
2018-12-05T03:49:15.141Z,88.54
2018-12-05T03:50:15.020Z,88.49
2018-12-05T03:51:14.962Z,88.74
2018-12-05T03:52:15.108Z,88.62
2018-12-05T03:53:15.046Z,88.62
2018-12-05T03:54:14.889Z,88.5
2018-12-05T03:55:15.031Z,88.72
2018-12-05T03:56:14.950Z,88.54
2018-12-05T03:57:14.978Z,88.33
2018-12-05T03:58:15.053Z,88.34
2018-12-05T03:59:14.957Z,88.29
2018-12-05T04:00:15.111Z,88.55
2018-12-05T04:01:15.055Z,88.31
2018-12-05T04:02:15.163Z,88.59
2018-12-05T04:03:15.068Z,88.5
2018-12-05T04:04:15.007Z,88.44
2018-12-05T04:05:15.096Z,88.56
2018-12-05T04:06:15.067Z,88.76
2018-12-05T04:07:15.752Z,88.49
2018-12-05T04:08:15.070Z,88.51
2018-12-05T04:09:14.969Z,88.27
2018-12-05T04:10:15.750Z,88.33
2018-12-05T04:11:15.078Z,88.35
2018-12-05T04:12:15.044Z,88.34
2018-12-05T04:13:14.904Z,88.38
2018-12-05T04:14:15.041Z,88.24
2018-12-05T04:15:15.116Z,88.07
2018-12-05T04:16:14.851Z,88.4
2018-12-05T04:17:14.876Z,88.11
2018-12-05T04:18:15.056Z,88.04
2018-12-05T04:19:15.258Z,88.19
2018-12-05T04:20:15.066Z,88.33
2018-12-05T04:21:14.960Z,88.07
2018-12-05T04:22:15.233Z,88.07
2018-12-05T04:23:15.036Z,88.11
2018-12-05T04:24:15.121Z,88.27
2018-12-05T04:25:14.917Z,88.37
2018-12-05T04:26:14.888Z,88.09
2018-12-05T04:27:15.286Z,88.21
2018-12-05T04:28:15.142Z,88.21
2018-12-05T04:29:14.853Z,88.26
2018-12-05T04:30:15.127Z,88.23
2018-12-05T04:31:15.074Z,88.37
2018-12-05T04:32:16.117Z,88.12
2018-12-05T04:33:15.102Z,88.12
2018-12-05T04:34:15.095Z,88.06
2018-12-05T04:35:14.865Z,88.12
2018-12-05T04:36:15.068Z,88.34
2018-12-05T04:37:14.932Z,88.08
2018-12-05T04:38:15.395Z,88.17
2018-12-05T04:39:15.063Z,88.24
2018-12-05T04:40:15.231Z,88.34
2018-12-05T04:41:14.863Z,88.17
2018-12-05T04:42:14.878Z,87.97
2018-12-05T04:43:14.951Z,87.95
2018-12-05T04:44:14.866Z,87.96
2018-12-05T04:45:14.902Z,88.15
2018-12-05T04:46:15.096Z,88.08
2018-12-05T04:47:15.104Z,88.12
2018-12-05T04:48:14.947Z,88.14
2018-12-05T04:49:15.970Z,88.1
2018-12-05T04:50:15.072Z,87.99
2018-12-05T04:51:14.908Z,88.05
2018-12-05T04:52:15.279Z,88
2018-12-05T04:53:14.882Z,87.95
2018-12-05T04:54:15.019Z,87.87
2018-12-05T04:55:14.848Z,87.79
2018-12-05T04:56:14.860Z,87.77
2018-12-05T04:57:14.798Z,87.79
2018-12-05T04:58:15.094Z,87.91
2018-12-05T04:59:14.848Z,88.08
2018-12-05T05:00:14.915Z,88.02
2018-12-05T05:01:14.811Z,87.91
2018-12-05T05:02:14.852Z,87.93
2018-12-05T05:03:14.842Z,87.88
2018-12-05T05:04:15.093Z,87.65
2018-12-05T05:05:14.961Z,87.66
2018-12-05T05:06:14.812Z,87.86
2018-12-05T05:07:15.007Z,87.65
2018-12-05T05:08:15.080Z,87.66
2018-12-05T05:09:14.904Z,87.58
2018-12-05T05:10:14.912Z,87.53
2018-12-05T05:11:14.794Z,87.72
2018-12-05T05:12:15.152Z,87.65
2018-12-05T05:13:14.884Z,87.56
2018-12-05T05:14:14.815Z,87.6
2018-12-05T05:15:15.134Z,87.65
2018-12-05T05:16:14.784Z,87.71
2018-12-05T05:17:14.770Z,87.55
2018-12-05T05:18:14.812Z,88
2018-12-05T05:19:15.162Z,87.79
2018-12-05T05:20:14.864Z,87.55
2018-12-05T05:21:14.826Z,87.57
2018-12-05T05:22:14.812Z,87.69
2018-12-05T05:23:15.040Z,87.53
2018-12-05T05:24:14.845Z,87.37
2018-12-05T05:25:14.813Z,87.26
2018-12-05T05:26:14.819Z,87.33
2018-12-05T05:27:14.862Z,87.45
2018-12-05T05:28:14.783Z,87.43
2018-12-05T05:29:14.823Z,87.56
2018-12-05T05:30:14.777Z,87.48
2018-12-05T05:31:14.801Z,87.25
2018-12-05T05:32:14.966Z,87.26
2018-12-05T05:33:15.508Z,87.14
2018-12-05T05:34:15.068Z,87.12
2018-12-05T05:35:14.804Z,87.45
2018-12-05T05:36:17.676Z,87.56
2018-12-05T05:37:14.836Z,87.53
2018-12-05T05:38:14.790Z,87.42
2018-12-05T05:39:15.088Z,87.31
2018-12-05T05:40:14.848Z,87.28
2018-12-05T05:41:14.775Z,87.24
2018-12-05T05:42:15.619Z,87.34
2018-12-05T05:43:14.821Z,87.42
2018-12-05T05:44:14.823Z,87.1
2018-12-05T05:45:15.054Z,87.2
2018-12-05T05:46:14.866Z,87.3
2018-12-05T05:47:15.070Z,87.57
2018-12-05T05:48:15.122Z,87.28
2018-12-05T05:49:14.948Z,87.36
2018-12-05T05:50:14.762Z,87.42
2018-12-05T05:51:14.836Z,87.21
2018-12-05T05:52:14.763Z,87.31
2018-12-05T05:53:14.950Z,87.44
2018-12-05T05:54:14.792Z,87.35
2018-12-05T05:55:14.794Z,87.24
2018-12-05T05:56:14.887Z,87.14
2018-12-05T05:57:14.847Z,87.16
2018-12-05T05:58:17.646Z,86.99
2018-12-05T05:59:14.767Z,87.08
2018-12-05T06:00:14.749Z,86.65
2018-12-05T06:01:14.789Z,86.67
2018-12-05T06:02:15.147Z,86.8
2018-12-05T06:03:14.742Z,86.79
2018-12-05T06:04:14.793Z,87.1
2018-12-05T06:05:15.119Z,86.85
2018-12-05T06:06:15.169Z,87.35
2018-12-05T06:07:15.002Z,86.96
2018-12-05T06:08:15.188Z,86.72
2018-12-05T06:09:14.774Z,86.8
2018-12-05T06:10:15.026Z,86.96
2018-12-05T06:11:14.809Z,87.15
2018-12-05T06:12:14.880Z,87.03
2018-12-05T06:13:14.746Z,87.07
2018-12-05T06:14:15.154Z,86.85
2018-12-05T06:15:15.631Z,86.78
2018-12-05T06:16:15.008Z,86.71
2018-12-05T06:17:14.835Z,86.5
2018-12-05T06:18:14.778Z,86.34
2018-12-05T06:19:14.832Z,86.69
2018-12-05T06:20:14.737Z,86.65
2018-12-05T06:21:14.865Z,86.48
2018-12-05T06:22:14.819Z,86.32
2018-12-05T06:23:14.828Z,86.07
2018-12-05T06:24:15.020Z,86.43
2018-12-05T06:25:14.712Z,86.09
2018-12-05T06:26:14.874Z,86.17
2018-12-05T06:27:14.785Z,86.34
2018-12-05T06:28:15.064Z,86.33
2018-12-05T06:29:15.100Z,86.14
2018-12-05T06:30:14.720Z,86.1
2018-12-05T06:31:14.748Z,86.08
2018-12-05T06:32:14.752Z,85.79
2018-12-05T06:33:14.859Z,86.2
2018-12-05T06:34:14.743Z,85.58
2018-12-05T06:35:14.774Z,85.54
2018-12-05T06:36:14.770Z,85.61
2018-12-05T06:37:14.715Z,85.64
2018-12-05T06:38:15.071Z,85.53
2018-12-05T06:39:14.861Z,85.59
2018-12-05T06:40:14.828Z,85.86
2018-12-05T06:41:14.778Z,85.53
2018-12-05T06:42:14.768Z,85.65
2018-12-05T06:43:14.878Z,85.58
2018-12-05T06:44:14.753Z,85.66
2018-12-05T06:45:14.830Z,85.7
2018-12-05T06:46:14.770Z,85.35
2018-12-05T06:47:14.896Z,85.58
2018-12-05T06:48:14.667Z,85.63
2018-12-05T06:49:14.692Z,85.67
2018-12-05T06:50:14.914Z,85.22
2018-12-05T06:51:14.875Z,85.16
2018-12-05T06:52:14.861Z,85.63
2018-12-05T06:53:14.783Z,85.56
2018-12-05T06:54:14.753Z,85.08
2018-12-05T06:55:14.684Z,85.42
2018-12-05T06:56:14.675Z,85.58
2018-12-05T06:57:14.700Z,85.64
2018-12-05T06:58:14.692Z,85.75
2018-12-05T06:59:14.705Z,85.76
2018-12-05T07:00:14.664Z,85.67
2018-12-05T07:01:14.838Z,85.65
2018-12-05T07:02:14.644Z,85.72
2018-12-05T07:03:14.709Z,85.65
2018-12-05T07:04:14.655Z,85.73
2018-12-05T07:05:14.646Z,85.56
2018-12-05T07:06:14.645Z,85.41
2018-12-05T07:07:14.644Z,85.41
2018-12-05T07:08:14.668Z,85.42
2018-12-05T07:09:14.671Z,85.31
2018-12-05T07:10:14.789Z,84.57
2018-12-05T07:11:14.707Z,84.56
2018-12-05T07:12:14.861Z,84.58
2018-12-05T07:13:15.997Z,84.72
2018-12-05T07:14:14.727Z,84.83
2018-12-05T07:15:14.639Z,84.83
2018-12-05T07:16:14.794Z,85.07
2018-12-05T07:17:14.683Z,85.09
2018-12-05T07:18:14.651Z,84.67
2018-12-05T07:19:14.633Z,84.97
2018-12-05T07:20:14.674Z,84.88
2018-12-05T07:21:14.723Z,84.95
2018-12-05T07:22:14.717Z,84.87
2018-12-05T07:23:14.697Z,84.8
2018-12-05T07:24:14.726Z,84.76
2018-12-05T07:25:14.653Z,84.49
2018-12-05T07:26:14.801Z,84.3
2018-12-05T07:27:14.805Z,84.24
2018-12-05T07:28:14.813Z,84.46
2018-12-05T07:29:14.645Z,84.48
2018-12-05T07:30:14.664Z,84.62
2018-12-05T07:31:14.643Z,84.77
2018-12-05T07:32:14.694Z,84.99
2018-12-05T07:33:14.660Z,85.08
2018-12-05T07:34:14.683Z,85.34
2018-12-05T07:35:14.620Z,85.08
2018-12-05T07:36:14.804Z,84.94
2018-12-05T07:37:14.772Z,84.6
2018-12-05T07:38:19.892Z,84.51
2018-12-05T07:39:14.839Z,84.53
2018-12-05T07:40:15.051Z,84.59
2018-12-05T07:41:14.859Z,84.73
2018-12-05T07:42:14.776Z,84.98
2018-12-05T07:43:14.728Z,84.91
2018-12-05T07:44:14.618Z,84.43
2018-12-05T07:45:14.629Z,84.55
2018-12-05T07:46:14.604Z,84.98
2018-12-05T07:47:14.691Z,84.84
2018-12-05T07:48:14.838Z,85.13
2018-12-05T07:49:15.070Z,84.99
2018-12-05T07:50:16.101Z,85.02
2018-12-05T07:51:14.571Z,85.05
2018-12-05T07:52:14.618Z,84.91
2018-12-05T07:53:14.686Z,84.86
2018-12-05T07:54:14.685Z,84.69
2018-12-05T07:55:14.669Z,84.81
2018-12-05T07:56:14.803Z,84.8
2018-12-05T07:57:14.601Z,84.6
2018-12-05T07:58:14.754Z,84.32
2018-12-05T07:59:14.627Z,84.61
2018-12-05T08:00:14.570Z,84.5
2018-12-05T08:01:14.785Z,84.84
2018-12-05T08:02:14.683Z,84.83
2018-12-05T08:03:14.719Z,84.8
2018-12-05T08:04:14.622Z,84.99
2018-12-05T08:05:14.636Z,84.76
2018-12-05T08:06:14.907Z,84.7
2018-12-05T08:07:15.023Z,85.01
2018-12-05T08:08:14.650Z,84.72
2018-12-05T08:09:14.646Z,84.77
2018-12-05T08:10:14.793Z,84.39
2018-12-05T08:11:14.765Z,84.42
2018-12-05T08:12:14.766Z,84.58
2018-12-05T08:13:14.588Z,84.66
2018-12-05T08:14:14.630Z,84.69
2018-12-05T08:15:14.629Z,84.64
2018-12-05T08:16:14.644Z,84.91
2018-12-05T08:17:14.548Z,84.68
2018-12-05T08:18:14.798Z,84.61
2018-12-05T08:19:14.652Z,84.58
2018-12-05T08:20:14.801Z,84.74
2018-12-05T08:21:14.575Z,84.72
2018-12-05T08:22:14.807Z,84.7
2018-12-05T08:23:14.752Z,84.78
2018-12-05T08:24:14.588Z,84.92
2018-12-05T08:25:14.615Z,85.13
2018-12-05T08:26:14.749Z,85.11
2018-12-05T08:27:14.789Z,84.88
2018-12-05T08:28:14.626Z,84.44
2018-12-05T08:29:14.903Z,84.59
2018-12-05T08:30:14.564Z,84.65
2018-12-05T08:31:14.735Z,85
2018-12-05T08:32:14.731Z,84.82
2018-12-05T08:33:15.313Z,84.54
2018-12-05T08:34:14.678Z,84.35
2018-12-05T08:35:14.562Z,84.51
2018-12-05T08:36:14.558Z,84.5
2018-12-05T08:37:14.521Z,84.64
2018-12-05T08:38:14.583Z,84.57
2018-12-05T08:39:14.795Z,84.71
2018-12-05T08:40:14.542Z,84.17
2018-12-05T08:41:14.525Z,84.37
2018-12-05T08:42:14.583Z,84.37
2018-12-05T08:43:14.581Z,84.3
2018-12-05T08:44:14.490Z,84.48
2018-12-05T08:45:14.572Z,83.91
2018-12-05T08:46:14.541Z,84.21
2018-12-05T08:47:14.510Z,84.02
2018-12-05T08:48:14.555Z,84.07
2018-12-05T08:49:14.512Z,84.21
2018-12-05T08:50:14.498Z,84.32
2018-12-05T08:51:14.605Z,84.06
2018-12-05T08:52:14.490Z,84.26
2018-12-05T08:53:14.553Z,84.21
2018-12-05T08:54:21.532Z,83.96
2018-12-05T08:55:14.503Z,84.08
2018-12-05T08:56:14.565Z,83.69
2018-12-05T08:57:14.516Z,83.85
2018-12-05T08:58:14.489Z,83.83
2018-12-05T08:59:14.570Z,83.63
2018-12-05T09:00:14.601Z,83.91
2018-12-05T09:01:14.529Z,83.62
2018-12-05T09:02:15.035Z,83.85
2018-12-05T09:03:14.523Z,83.64
2018-12-05T09:04:14.494Z,83.58
2018-12-05T09:05:14.760Z,83.79
2018-12-05T09:06:14.720Z,84.02
2018-12-05T09:07:14.515Z,83.45
2018-12-05T09:08:14.733Z,83.19
2018-12-05T09:09:14.665Z,83.41
2018-12-05T09:10:15.324Z,83.4
2018-12-05T09:11:14.857Z,83.64
2018-12-05T09:12:14.622Z,83.62
2018-12-05T09:13:14.549Z,83.82
2018-12-05T09:14:14.556Z,83.57
2018-12-05T09:15:14.595Z,83.75
2018-12-05T09:16:14.618Z,83.56
2018-12-05T09:17:14.793Z,83.44
2018-12-05T09:18:14.549Z,83.37
2018-12-05T09:19:14.454Z,83.73
2018-12-05T09:20:14.511Z,83.64
2018-12-05T09:21:14.579Z,83.46
2018-12-05T09:22:14.701Z,83.5
2018-12-05T09:23:14.498Z,83.41
2018-12-05T09:24:14.471Z,83.47
2018-12-05T09:25:14.503Z,83.6
2018-12-05T09:26:14.656Z,83.8
2018-12-05T09:27:14.579Z,83.36
2018-12-05T09:28:14.496Z,83.54
2018-12-05T09:29:14.487Z,83.17
2018-12-05T09:30:15.152Z,82.95
2018-12-05T09:31:14.726Z,83.25
2018-12-05T09:32:14.534Z,83.2
2018-12-05T09:33:14.519Z,83.35
2018-12-05T09:34:14.446Z,83.52
2018-12-05T09:35:14.733Z,83.78
2018-12-05T09:36:14.504Z,83.56
2018-12-05T09:37:14.511Z,83.48
2018-12-05T09:38:14.630Z,83.29
2018-12-05T09:39:14.713Z,83.2
2018-12-05T09:40:14.479Z,83.28
2018-12-05T09:41:14.487Z,82.96
2018-12-05T09:42:14.495Z,83.31
2018-12-05T09:43:14.455Z,83.39
2018-12-05T09:44:14.425Z,83.13
2018-12-05T09:45:14.484Z,82.87
2018-12-05T09:46:15.277Z,83.1
2018-12-05T09:47:16.484Z,83.26
2018-12-05T09:48:14.646Z,83.26
2018-12-05T09:49:14.909Z,82.57
2018-12-05T09:50:14.531Z,82.85
2018-12-05T09:51:14.545Z,83
2018-12-05T09:52:14.465Z,82.6
2018-12-05T09:53:14.471Z,83.09
2018-12-05T09:54:14.510Z,83.3
2018-12-05T09:55:14.542Z,83.54
2018-12-05T09:56:14.619Z,83.29
2018-12-05T09:57:14.642Z,83.09
2018-12-05T09:58:14.621Z,83.13
2018-12-05T09:59:14.544Z,83.1
2018-12-05T10:00:14.505Z,83.29
2018-12-05T10:01:14.741Z,82.9
2018-12-05T10:02:14.595Z,82.81
2018-12-05T10:03:14.844Z,83.09
2018-12-05T10:04:14.724Z,83.36
2018-12-05T10:05:14.800Z,83.29
2018-12-05T10:06:14.531Z,83.19
2018-12-05T10:07:14.559Z,83.14
2018-12-05T10:08:14.751Z,83.31
2018-12-05T10:09:14.540Z,83.38
2018-12-05T10:10:14.619Z,83.43
2018-12-05T10:11:14.476Z,83.2
2018-12-05T10:12:14.397Z,83.45
2018-12-05T10:13:14.398Z,83.32
2018-12-05T10:14:14.557Z,82.85
2018-12-05T10:15:14.581Z,83.45
2018-12-05T10:16:14.944Z,83.18
2018-12-05T10:17:14.750Z,83.28
2018-12-05T10:18:14.496Z,82.98
2018-12-05T10:19:14.407Z,82.85
2018-12-05T10:20:14.656Z,82.94
2018-12-05T10:21:14.380Z,82.84
2018-12-05T10:22:14.419Z,83.11
2018-12-05T10:23:14.395Z,83
2018-12-05T10:24:14.399Z,82.88
2018-12-05T10:25:14.407Z,83.19
2018-12-05T10:26:14.557Z,83.31
2018-12-05T10:27:14.457Z,83.36
2018-12-05T10:28:14.845Z,83.16
2018-12-05T10:29:14.527Z,83.23
2018-12-05T10:30:14.465Z,83.22
2018-12-05T10:31:14.369Z,83.08
2018-12-05T10:32:14.449Z,83.02
2018-12-05T10:33:14.385Z,83.18
2018-12-05T10:34:14.374Z,83.1
2018-12-05T10:35:14.362Z,83.16
2018-12-05T10:36:14.636Z,83.46
2018-12-05T10:37:14.387Z,83.11
2018-12-05T10:38:14.395Z,83.37
2018-12-05T10:39:14.374Z,83.42
2018-12-05T10:40:14.766Z,83.46
2018-12-05T10:41:14.344Z,83.6
2018-12-05T10:42:14.406Z,83.6
2018-12-05T10:43:14.384Z,83.46
2018-12-05T10:44:14.495Z,83.04
2018-12-05T10:45:14.599Z,83.41
2018-12-05T10:46:15.204Z,83.38
2018-12-05T10:47:14.757Z,83.15
2018-12-05T10:48:14.569Z,83.39
2018-12-05T10:49:14.361Z,83.29
2018-12-05T10:50:14.455Z,83.3
2018-12-05T10:51:14.666Z,83.42
2018-12-05T10:52:14.444Z,82.96
2018-12-05T10:53:14.470Z,82.6
2018-12-05T10:54:14.407Z,82.4
2018-12-05T10:55:14.508Z,82.28
2018-12-05T10:56:14.562Z,82.7
2018-12-05T10:57:14.631Z,82.42
2018-12-05T10:58:14.371Z,82.77
2018-12-05T10:59:14.456Z,82.81
2018-12-05T11:00:14.500Z,82.71
2018-12-05T11:01:14.407Z,82.44
2018-12-05T11:02:15.097Z,82.54
2018-12-05T11:03:14.364Z,82.37
2018-12-05T11:04:14.496Z,82.31
2018-12-05T11:05:14.518Z,82.03
2018-12-05T11:06:14.600Z,81.58
2018-12-05T11:07:14.342Z,81.9
2018-12-05T11:08:14.388Z,82.19
2018-12-05T11:09:14.634Z,81.87
2018-12-05T11:10:14.430Z,82.33
2018-12-05T11:11:14.459Z,82
2018-12-05T11:12:14.435Z,82.03
2018-12-05T11:13:14.471Z,81.9
2018-12-05T11:14:14.530Z,82.05
2018-12-05T11:15:14.377Z,81.98
2018-12-05T11:16:14.541Z,81.86
2018-12-05T11:17:14.538Z,82.06
2018-12-05T11:18:14.365Z,82.05
2018-12-05T11:19:14.856Z,82.18
2018-12-05T11:20:14.540Z,81.9
2018-12-05T11:21:14.379Z,81.84
2018-12-05T11:22:14.478Z,82.1
2018-12-05T11:23:14.438Z,81.82
2018-12-05T11:24:14.647Z,81.53
2018-12-05T11:25:14.360Z,81.65
2018-12-05T11:26:14.417Z,82.07
2018-12-05T11:27:14.670Z,82.03
2018-12-05T11:28:15.201Z,81.95
2018-12-05T11:29:14.438Z,81.98
2018-12-05T11:30:14.609Z,81.81
2018-12-05T11:31:14.589Z,81.31
2018-12-05T11:32:14.631Z,81.61
2018-12-05T11:33:14.465Z,81.65
2018-12-05T11:34:14.472Z,81.34
2018-12-05T11:35:14.333Z,81.93
2018-12-05T11:36:14.399Z,81.75
2018-12-05T11:37:14.710Z,81.92
2018-12-05T11:38:14.327Z,81.42
2018-12-05T11:39:14.414Z,81.64
2018-12-05T11:40:15.123Z,81.5
2018-12-05T11:41:14.385Z,81.64
2018-12-05T11:42:14.519Z,82.01
2018-12-05T11:43:14.335Z,82.03
2018-12-05T11:44:14.449Z,81.87
2018-12-05T11:45:14.538Z,81.74
2018-12-05T11:46:14.691Z,81.7
2018-12-05T11:47:14.419Z,81.9
2018-12-05T11:48:14.470Z,81.69
2018-12-05T11:49:14.875Z,81.68
2018-12-05T11:50:14.346Z,81.75
2018-12-05T11:51:14.373Z,81.79
2018-12-05T11:52:14.500Z,81.99
2018-12-05T11:53:14.402Z,82.24
2018-12-05T11:54:14.271Z,81.93
2018-12-05T11:55:14.418Z,81.96
2018-12-05T11:56:14.320Z,81.85
2018-12-05T11:57:14.293Z,81.81
2018-12-05T11:58:14.337Z,82.08
2018-12-05T11:59:14.310Z,81.85
2018-12-05T12:00:14.277Z,81.98
2018-12-05T12:01:14.289Z,81.83
2018-12-05T12:02:14.333Z,81.65
2018-12-05T12:03:14.281Z,82.16
2018-12-05T12:04:14.404Z,82.16
2018-12-05T12:05:14.456Z,82.08
2018-12-05T12:06:14.476Z,81.95
2018-12-05T12:07:14.314Z,82.07
2018-12-05T12:08:14.905Z,81.52
2018-12-05T12:09:14.334Z,81.3
2018-12-05T12:10:14.798Z,81.34
2018-12-05T12:11:14.296Z,81.33
2018-12-05T12:12:14.346Z,80.79
2018-12-05T12:13:14.506Z,81.26
2018-12-05T12:14:14.348Z,80.92
2018-12-05T12:15:14.284Z,80.69
2018-12-05T12:16:14.330Z,81.04
2018-12-05T12:17:14.263Z,81.49
2018-12-05T12:18:14.412Z,81.01
2018-12-05T12:19:14.278Z,81.03
2018-12-05T12:20:14.393Z,81.01
2018-12-05T12:21:14.286Z,81.04
2018-12-05T12:22:14.305Z,80.93
2018-12-05T12:23:14.811Z,80.81
2018-12-05T12:24:14.375Z,80.77
2018-12-05T12:25:15.730Z,80.51
2018-12-05T12:26:15.525Z,80.78
2018-12-05T12:27:14.281Z,80.7
2018-12-05T12:28:14.581Z,80.99
2018-12-05T12:29:14.410Z,80.93
2018-12-05T12:30:16.403Z,80.51
2018-12-05T12:31:14.237Z,80.33
2018-12-05T12:32:14.333Z,80.38
2018-12-05T12:33:14.681Z,80.39
2018-12-05T12:34:14.386Z,79.78
2018-12-05T12:35:14.298Z,79.74
2018-12-05T12:36:14.293Z,79.83
2018-12-05T12:37:14.235Z,79.53
2018-12-05T12:38:14.307Z,79.6
2018-12-05T12:39:14.484Z,79.61
2018-12-05T12:40:14.594Z,79.74
2018-12-05T12:41:14.277Z,79.81
2018-12-05T12:42:14.263Z,79.56
2018-12-05T12:43:14.216Z,80.02
2018-12-05T12:44:14.342Z,79.62
2018-12-05T12:45:14.209Z,79.28
2018-12-05T12:46:14.302Z,79.42
2018-12-05T12:47:14.643Z,79.29
2018-12-05T12:48:14.290Z,79.39
2018-12-05T12:49:14.452Z,79.55
2018-12-05T12:50:14.591Z,79.19
2018-12-05T12:51:14.594Z,79.15
2018-12-05T12:52:14.234Z,79.15
2018-12-05T12:53:14.226Z,79.26
2018-12-05T12:54:14.371Z,79.36
2018-12-05T12:55:14.468Z,79.17